createdAt,value
2019-05-28T00:00:31.226Z,4.43
2019-05-28T00:02:58.162Z,3.53
2019-05-28T00:05:25.156Z,3.93
2019-05-28T00:07:52.161Z,4.20
2019-05-28T00:10:19.202Z,4.30
2019-05-28T00:12:46.094Z,4.10
2019-05-28T00:15:13.285Z,4.67
2019-05-28T00:17:40.214Z,4.13
2019-05-28T00:20:08.314Z,4.83
2019-05-28T00:22:35.218Z,4.20
2019-05-28T00:25:02.255Z,4.60
2019-05-28T00:27:29.035Z,4.10
2019-05-28T00:29:55.849Z,4.17
2019-05-28T00:32:22.678Z,4.23
2019-05-28T00:34:49.579Z,4.50
2019-05-28T00:37:29.406Z,4.30
2019-05-28T00:39:56.337Z,4.43
2019-05-28T00:42:23.325Z,4.57
2019-05-28T00:44:50.155Z,4.30
2019-05-28T00:47:17.156Z,4.70
2019-05-28T00:49:44.037Z,3.90
2019-05-28T00:52:11.099Z,4.50
2019-05-28T00:54:38.090Z,4.90
2019-05-28T00:57:05.122Z,4.37
2019-05-28T00:59:32.521Z,4.33
2019-05-28T01:01:59.310Z,4.37
2019-05-28T01:04:26.466Z,4.40
2019-05-28T01:06:59.450Z,4.53
2019-05-28T01:09:26.230Z,4.30
2019-05-28T01:11:53.070Z,3.90
2019-05-28T01:14:19.982Z,4.20
2019-05-28T01:16:46.770Z,4.80
2019-05-28T01:19:13.770Z,4.60
2019-05-28T01:21:42.467Z,4.20
2019-05-28T01:24:09.481Z,4.37
2019-05-28T01:26:36.265Z,4.80
2019-05-28T01:29:03.300Z,3.77
2019-05-28T01:31:30.330Z,4.30
2019-05-28T01:33:57.122Z,4.60
2019-05-28T01:36:24.437Z,4.80
2019-05-28T01:38:51.279Z,4.47
2019-05-28T01:41:18.209Z,4.20
2019-05-28T01:43:45.018Z,4.40
2019-05-28T01:46:11.968Z,4.23
2019-05-28T01:48:38.830Z,3.63
2019-05-28T01:51:05.748Z,4.07
2019-05-28T01:53:32.667Z,3.80
2019-05-28T01:55:59.571Z,5.00
2019-05-28T01:58:26.353Z,4.50
2019-05-28T02:00:53.156Z,3.90
2019-05-28T02:03:20.014Z,4.00
2019-05-28T02:05:47.051Z,4.63
2019-05-28T02:08:13.970Z,4.20
2019-05-28T02:10:40.887Z,3.83
2019-05-28T02:13:07.770Z,4.10
2019-05-28T02:15:34.677Z,4.20
2019-05-28T02:18:01.709Z,4.10
2019-05-28T02:20:28.608Z,4.00
2019-05-28T02:22:55.406Z,4.77
2019-05-28T02:25:22.358Z,4.40
2019-05-28T02:27:49.174Z,4.33
2019-05-28T02:30:16.810Z,4.30
2019-05-28T02:32:43.718Z,4.70
2019-05-28T02:35:11.055Z,4.63
2019-05-28T02:37:37.930Z,4.33
2019-05-28T02:40:07.054Z,4.20
2019-05-28T02:42:34.146Z,4.27
2019-05-28T02:45:01.073Z,4.60
2019-05-28T02:47:27.861Z,5.00
2019-05-28T02:49:54.674Z,4.40
2019-05-28T02:52:22.275Z,4.13
2019-05-28T02:54:49.663Z,4.10
2019-05-28T02:57:17.485Z,4.57
2019-05-28T02:59:47.702Z,4.23
2019-05-28T03:02:16.813Z,3.87
2019-05-28T03:04:45.798Z,4.93
2019-05-28T03:07:13.526Z,4.90
2019-05-28T03:09:44.125Z,4.70
2019-05-28T03:12:11.121Z,4.73
2019-05-28T03:14:38.146Z,3.93
2019-05-28T03:17:05.945Z,4.00
2019-05-28T03:19:35.277Z,4.60
2019-05-28T03:22:02.613Z,4.53
2019-05-28T03:24:31.302Z,4.13
2019-05-28T03:26:58.286Z,4.63
2019-05-28T03:29:25.422Z,4.03
2019-05-28T03:32:07.169Z,3.83
2019-05-28T03:34:21.206Z,4.10
2019-05-28T03:36:48.557Z,4.03
2019-05-28T03:39:15.596Z,3.73
2019-05-28T03:41:42.512Z,4.13
2019-05-28T03:44:09.343Z,4.27
2019-05-28T03:46:36.118Z,3.83
2019-05-28T03:49:03.126Z,3.10
2019-05-28T03:51:29.955Z,2.90
2019-05-28T03:53:56.851Z,3.00
2019-05-28T03:56:23.693Z,2.33
2019-05-28T03:58:50.489Z,2.40
2019-05-28T04:01:17.289Z,2.03
2019-05-28T04:03:44.131Z,2.20
2019-05-28T04:06:10.929Z,2.40
2019-05-28T04:08:37.811Z,2.20
2019-05-28T04:11:04.852Z,1.97
2019-05-28T04:13:31.655Z,2.10
2019-05-28T04:15:58.467Z,1.90
2019-05-28T04:18:25.395Z,2.00
2019-05-28T04:20:52.223Z,2.70
2019-05-28T04:23:19.215Z,2.00
2019-05-28T04:25:46.367Z,2.03
2019-05-28T04:28:13.456Z,2.80
2019-05-28T04:30:40.410Z,1.83
2019-05-28T04:33:07.341Z,2.03
2019-05-28T04:35:34.241Z,1.97
2019-05-28T04:38:01.293Z,1.70
2019-05-28T04:40:28.132Z,1.60
2019-05-28T04:42:54.925Z,1.60
2019-05-28T04:45:21.931Z,1.57
2019-05-28T04:47:48.758Z,1.43
2019-05-28T04:50:15.758Z,1.50
2019-05-28T04:52:42.776Z,1.73
2019-05-28T04:55:09.980Z,1.70
2019-05-28T04:57:36.776Z,1.83
2019-05-28T05:00:04.722Z,2.00
2019-05-28T05:02:31.754Z,1.77
2019-05-28T05:04:58.688Z,1.87
2019-05-28T05:07:25.479Z,2.57
2019-05-28T05:09:52.530Z,1.50
2019-05-28T05:12:19.353Z,1.20
2019-05-28T05:14:46.154Z,1.80
2019-05-28T05:17:13.035Z,1.70
2019-05-28T05:19:40.062Z,1.67
2019-05-28T05:22:06.870Z,1.70
2019-05-28T05:24:33.669Z,1.50
2019-05-28T05:27:00.637Z,1.70
2019-05-28T05:29:27.501Z,1.70
2019-05-28T05:31:54.400Z,1.50
2019-05-28T05:34:21.346Z,1.70
2019-05-28T05:36:48.258Z,1.67
2019-05-28T05:39:15.255Z,1.70
2019-05-28T05:41:42.286Z,2.00
2019-05-28T05:44:09.090Z,1.80
2019-05-28T05:46:35.894Z,1.87
2019-05-28T05:49:02.840Z,1.80
2019-05-28T05:51:29.835Z,1.70
2019-05-28T05:53:56.731Z,2.00
2019-05-28T05:56:23.532Z,1.63
2019-05-28T05:58:50.421Z,1.50
2019-05-28T06:01:17.312Z,1.67
2019-05-28T06:03:44.203Z,1.73
2019-05-28T06:06:11.012Z,1.87
2019-05-28T06:08:37.838Z,2.83
2019-05-28T06:11:04.858Z,1.63
2019-05-28T06:13:31.786Z,1.90
2019-05-28T06:15:58.721Z,1.83
2019-05-28T06:18:25.636Z,1.70
2019-05-28T06:21:07.953Z,2.17
2019-05-28T06:23:21.301Z,1.90
2019-05-28T06:25:48.092Z,2.00
2019-05-28T06:28:14.980Z,1.77
2019-05-28T06:30:41.938Z,1.50
2019-05-28T06:33:08.864Z,2.37
2019-05-28T06:35:35.666Z,1.80
2019-05-28T06:38:02.677Z,1.67
2019-05-28T06:40:29.771Z,1.90
2019-05-28T06:42:56.850Z,2.13
2019-05-28T06:45:23.865Z,1.50
2019-05-28T06:47:50.898Z,1.90
2019-05-28T06:50:18.166Z,1.40
2019-05-28T06:52:44.962Z,2.03
2019-05-28T06:55:12.065Z,1.93
2019-05-28T06:57:39.094Z,1.70
2019-05-28T07:00:07.056Z,1.77
2019-05-28T07:02:34.291Z,2.60
2019-05-28T07:05:01.391Z,1.53
2019-05-28T07:07:28.218Z,1.40
2019-05-28T07:09:55.130Z,1.40
2019-05-28T07:12:21.928Z,1.60
2019-05-28T07:14:48.762Z,1.20
2019-05-28T07:17:15.694Z,1.40
2019-05-28T07:19:42.602Z,1.47
2019-05-28T07:22:09.518Z,1.47
2019-05-28T07:24:36.557Z,1.60
2019-05-28T07:27:03.523Z,0.93
2019-05-28T07:29:30.506Z,1.10
2019-05-28T07:31:57.333Z,1.20
2019-05-28T07:34:30.709Z,1.40
2019-05-28T07:36:53.053Z,1.03
2019-05-28T07:39:20.008Z,1.03
2019-05-28T07:41:46.786Z,1.37
2019-05-28T07:44:13.589Z,1.20
2019-05-28T07:46:40.534Z,1.60
2019-05-28T07:49:07.357Z,1.20
2019-05-28T07:51:34.341Z,1.10
2019-05-28T07:54:01.274Z,1.50
2019-05-28T07:56:28.174Z,1.20
2019-05-28T07:58:55.077Z,1.53
2019-05-28T08:01:22.001Z,1.60
2019-05-28T08:03:49.088Z,1.60
2019-05-28T08:06:16.118Z,1.57
2019-05-28T08:08:43.065Z,1.50
2019-05-28T08:11:09.987Z,1.50
2019-05-28T08:13:40.761Z,1.60
2019-05-28T08:16:18.324Z,2.07
2019-05-28T08:18:35.030Z,1.70
2019-05-28T08:21:01.966Z,1.63
2019-05-28T08:23:28.759Z,1.47
2019-05-28T08:25:55.797Z,1.50
2019-05-28T08:28:22.738Z,1.60
2019-05-28T08:30:49.542Z,1.90
2019-05-28T08:33:16.508Z,1.63
2019-05-28T08:35:43.383Z,2.30
2019-05-28T08:38:10.294Z,1.53
2019-05-28T08:40:37.249Z,1.50
2019-05-28T08:43:04.153Z,1.90
2019-05-28T08:45:31.063Z,1.70
2019-05-28T08:47:58.019Z,1.50
2019-05-28T08:50:34.507Z,1.87
2019-05-28T08:52:53.971Z,1.27
2019-05-28T08:55:21.015Z,1.37
2019-05-28T08:57:47.941Z,1.60
2019-05-28T09:00:33.950Z,1.37
2019-05-28T09:03:04.920Z,1.40
2019-05-28T09:05:29.661Z,1.37
2019-05-28T09:07:56.586Z,1.70
2019-05-28T09:10:23.386Z,1.40
2019-05-28T09:12:50.193Z,1.53
2019-05-28T09:15:17.017Z,1.60
2019-05-28T09:17:43.831Z,2.63
2019-05-28T09:20:10.878Z,1.33
2019-05-28T09:22:37.677Z,1.40
2019-05-28T09:25:04.720Z,1.60
2019-05-28T09:27:31.560Z,1.40
2019-05-28T09:29:58.389Z,1.30
2019-05-28T09:32:26.066Z,1.80
2019-05-28T09:34:53.479Z,1.30
2019-05-28T09:37:20.372Z,1.33
2019-05-28T09:39:47.358Z,1.80
2019-05-28T09:42:14.417Z,1.50
2019-05-28T09:44:41.226Z,2.27
2019-05-28T09:47:08.139Z,1.87
2019-05-28T09:49:34.964Z,2.03
2019-05-28T09:52:01.977Z,1.40
2019-05-28T09:54:28.810Z,1.40
2019-05-28T09:56:55.733Z,2.10
2019-05-28T09:59:22.902Z,1.43
2019-05-28T10:01:50.022Z,1.60
2019-05-28T10:04:16.990Z,2.60
2019-05-28T10:06:43.898Z,1.50
2019-05-28T10:09:10.809Z,1.63
2019-05-28T10:11:37.868Z,2.10
2019-05-28T10:14:04.906Z,1.50
2019-05-28T10:16:32.111Z,1.50
2019-05-28T10:18:59.049Z,2.07
2019-05-28T10:21:26.079Z,1.20
2019-05-28T10:23:52.979Z,1.40
2019-05-28T10:26:19.925Z,1.37
2019-05-28T10:28:50.298Z,1.50
2019-05-28T10:31:15.643Z,2.07
2019-05-28T10:33:42.691Z,1.30
2019-05-28T10:36:09.610Z,1.37
2019-05-28T10:38:36.551Z,1.73
2019-05-28T10:41:03.858Z,1.27
2019-05-28T10:43:30.922Z,1.00
2019-05-28T10:45:58.047Z,1.67
2019-05-28T10:48:24.990Z,1.70
2019-05-28T10:50:51.892Z,2.07
2019-05-28T10:53:18.818Z,1.33
2019-05-28T10:55:45.886Z,1.50
2019-05-28T10:58:12.871Z,1.30
2019-05-28T11:00:39.890Z,1.17
2019-05-28T11:03:06.898Z,1.20
2019-05-28T11:05:33.914Z,1.20
2019-05-28T11:08:00.901Z,1.30
2019-05-28T11:10:28.087Z,1.20
2019-05-28T11:12:54.890Z,1.73
2019-05-28T11:15:24.011Z,1.30
2019-05-28T11:17:51.170Z,1.37
2019-05-28T11:20:19.665Z,1.47
2019-05-28T11:22:46.572Z,1.43
2019-05-28T11:25:14.162Z,1.20
2019-05-28T11:27:41.073Z,1.20
2019-05-28T11:30:08.810Z,1.10
2019-05-28T11:32:35.759Z,1.50
2019-05-28T11:35:04.196Z,1.00
2019-05-28T11:37:31.098Z,1.30
2019-05-28T11:39:57.931Z,1.10
2019-05-28T11:42:24.947Z,1.40
2019-05-28T11:44:52.086Z,1.53
2019-05-28T11:47:18.880Z,1.20
2019-05-28T11:49:45.999Z,2.07
2019-05-28T11:52:12.911Z,1.07
2019-05-28T11:54:39.718Z,1.37
2019-05-28T11:57:06.683Z,1.30
2019-05-28T11:59:33.580Z,1.43
2019-05-28T12:02:04.270Z,1.40
2019-05-28T12:04:29.361Z,1.57
2019-05-28T12:06:56.161Z,1.40
2019-05-28T12:09:23.218Z,1.27
2019-05-28T12:11:50.170Z,1.10
2019-05-28T12:14:17.102Z,1.23
2019-05-28T12:16:44.040Z,1.50
2019-05-28T12:19:11.149Z,1.20
2019-05-28T12:21:37.938Z,1.20
2019-05-28T12:24:04.947Z,1.10
2019-05-28T12:26:31.873Z,1.00
2019-05-28T12:28:58.926Z,1.20
2019-05-28T12:31:25.750Z,1.20
2019-05-28T12:33:52.710Z,1.43
2019-05-28T12:36:19.751Z,1.17
2019-05-28T12:38:46.555Z,1.03
2019-05-28T12:41:13.455Z,1.30
2019-05-28T12:43:40.249Z,1.37
2019-05-28T12:46:07.243Z,1.23
2019-05-28T12:48:34.074Z,1.10
2019-05-28T12:51:02.310Z,1.10
2019-05-28T12:53:48.043Z,1.00
2019-05-28T12:55:58.271Z,1.37
2019-05-28T12:58:40.698Z,1.30
2019-05-28T13:00:54.109Z,1.10
2019-05-28T13:03:21.177Z,1.30
2019-05-28T13:05:48.074Z,0.90
2019-05-28T13:08:15.043Z,1.20
2019-05-28T13:10:41.895Z,1.33
2019-05-28T13:13:08.675Z,0.80
2019-05-28T13:15:35.503Z,1.20
2019-05-28T13:18:02.557Z,1.00
2019-05-28T13:20:29.354Z,1.10
2019-05-28T13:22:56.136Z,1.40
2019-05-28T13:25:23.083Z,1.07
2019-05-28T13:27:50.086Z,1.20
2019-05-28T13:30:18.083Z,1.00
2019-05-28T13:32:45.517Z,1.20
2019-05-28T13:35:13.741Z,1.03
2019-05-28T13:37:40.802Z,0.93
2019-05-28T13:40:08.957Z,1.43
2019-05-28T13:42:36.040Z,1.17
2019-05-28T13:45:04.410Z,1.07
2019-05-28T13:47:34.061Z,1.13
2019-05-28T13:50:00.042Z,1.10
2019-05-28T13:52:26.887Z,1.00
2019-05-28T13:54:53.811Z,1.10
2019-05-28T13:57:20.607Z,1.10
2019-05-28T13:59:47.674Z,0.90
2019-05-28T14:02:14.575Z,1.43
2019-05-28T14:04:41.594Z,0.97
2019-05-28T14:07:08.524Z,1.07
2019-05-28T14:09:35.328Z,0.90
2019-05-28T14:12:02.654Z,1.07
2019-05-28T14:14:29.600Z,0.83
2019-05-28T14:16:56.400Z,1.10
2019-05-28T14:19:23.323Z,0.90
2019-05-28T14:21:50.348Z,1.03
2019-05-28T14:24:17.133Z,1.00
2019-05-28T14:26:43.946Z,1.27
2019-05-28T14:29:10.788Z,1.37
2019-05-28T14:31:37.631Z,1.27
2019-05-28T14:34:04.681Z,1.13
2019-05-28T14:36:31.622Z,1.00
2019-05-28T14:39:03.273Z,1.23
2019-05-28T14:41:27.519Z,1.20
2019-05-28T14:43:54.456Z,0.87
2019-05-28T14:46:21.262Z,1.20
2019-05-28T14:48:48.239Z,1.00
2019-05-28T14:51:15.056Z,1.00
2019-05-28T14:53:42.007Z,1.13
2019-05-28T14:56:08.961Z,1.43
2019-05-28T14:58:35.889Z,0.90
2019-05-28T15:01:02.959Z,0.90
2019-05-28T15:03:30.616Z,1.40
2019-05-28T15:05:57.506Z,1.10
2019-05-28T15:08:24.599Z,0.90
2019-05-28T15:10:51.434Z,0.93
2019-05-28T15:13:18.313Z,1.20
2019-05-28T15:15:45.378Z,1.40
2019-05-28T15:18:12.320Z,1.03
2019-05-28T15:20:39.367Z,0.90
2019-05-28T15:23:06.465Z,0.90
2019-05-28T15:25:33.593Z,1.20
2019-05-28T15:28:00.570Z,1.30
2019-05-28T15:30:27.600Z,1.27
2019-05-28T15:32:54.415Z,0.70
2019-05-28T15:35:21.524Z,1.00
2019-05-28T15:37:48.603Z,1.37
2019-05-28T15:40:16.026Z,1.40
2019-05-28T15:42:43.096Z,1.20
2019-05-28T15:45:12.360Z,1.30
2019-05-28T15:47:39.352Z,1.07
2019-05-28T15:50:06.803Z,1.00
2019-05-28T15:52:33.832Z,1.00
2019-05-28T15:55:00.864Z,1.17
2019-05-28T15:57:27.786Z,0.93
2019-05-28T15:59:54.802Z,1.07
2019-05-28T16:02:21.748Z,1.20
2019-05-28T16:04:48.793Z,0.97
2019-05-28T16:07:15.861Z,1.10
2019-05-28T16:09:55.640Z,1.20
2019-05-28T16:12:11.667Z,1.20
2019-05-28T16:14:38.635Z,1.07
2019-05-28T16:17:05.671Z,1.43
2019-05-28T16:19:32.636Z,0.80
2019-05-28T16:21:59.563Z,0.90
2019-05-28T16:24:26.526Z,1.10
2019-05-28T16:26:53.489Z,1.40
2019-05-28T16:29:20.417Z,1.20
2019-05-28T16:31:47.234Z,1.40
2019-05-28T16:34:14.202Z,1.43
2019-05-28T16:36:41.140Z,0.97
2019-05-28T16:39:08.297Z,0.90
2019-05-28T16:41:35.436Z,1.00
2019-05-28T16:44:02.643Z,1.03
2019-05-28T16:46:29.589Z,0.80
2019-05-28T16:48:56.405Z,0.90
2019-05-28T16:51:23.238Z,0.90
2019-05-28T16:53:50.277Z,1.27
2019-05-28T16:56:17.093Z,0.83
2019-05-28T16:58:43.902Z,1.30
2019-05-28T17:01:22.365Z,0.80
2019-05-28T17:03:39.667Z,0.93
2019-05-28T17:06:06.457Z,1.20
2019-05-28T17:08:33.426Z,1.20
2019-05-28T17:11:00.326Z,1.00
2019-05-28T17:13:27.314Z,0.97
2019-05-28T17:15:54.162Z,1.07
2019-05-28T17:18:20.979Z,1.20
2019-05-28T17:20:47.788Z,1.03
2019-05-28T17:23:14.758Z,1.00
2019-05-28T17:25:41.770Z,0.93
2019-05-28T17:28:08.684Z,1.00
2019-05-28T17:30:35.706Z,1.13
2019-05-28T17:33:02.702Z,0.90
2019-05-28T17:35:29.655Z,1.10
2019-05-28T17:37:56.452Z,0.90
2019-05-28T17:40:23.255Z,1.00
2019-05-28T17:42:50.231Z,0.97
2019-05-28T17:45:17.676Z,1.33
2019-05-28T17:47:44.986Z,0.97
2019-05-28T17:50:12.342Z,0.70
2019-05-28T17:52:39.149Z,1.50
2019-05-28T17:55:06.330Z,0.97
2019-05-28T17:57:33.341Z,0.87
2019-05-28T18:00:00.283Z,0.80
2019-05-28T18:02:27.102Z,1.10
2019-05-28T18:04:54.006Z,0.90
2019-05-28T18:07:20.884Z,1.10
2019-05-28T18:09:47.831Z,1.00
2019-05-28T18:12:14.729Z,0.97
2019-05-28T18:14:41.554Z,1.10
2019-05-28T18:17:08.389Z,0.97
2019-05-28T18:19:35.226Z,1.27
2019-05-28T18:22:02.257Z,1.17
2019-05-28T18:24:29.176Z,1.03
2019-05-28T18:26:55.993Z,1.10
2019-05-28T18:29:22.974Z,1.00
2019-05-28T18:31:50.014Z,1.40
2019-05-28T18:34:16.815Z,1.10
2019-05-28T18:36:43.718Z,0.90
2019-05-28T18:39:10.549Z,1.13
2019-05-28T18:41:37.674Z,1.10
2019-05-28T18:44:04.719Z,1.00
2019-05-28T18:46:31.611Z,1.03
2019-05-28T18:48:58.407Z,1.87
2019-05-28T18:51:25.210Z,1.13
2019-05-28T18:53:52.211Z,0.90
2019-05-28T18:56:19.103Z,1.30
2019-05-28T18:58:45.920Z,1.17
2019-05-28T19:01:12.879Z,1.30
2019-05-28T19:03:39.701Z,1.47
2019-05-28T19:06:06.507Z,1.97
2019-05-28T19:08:33.349Z,2.33
2019-05-28T19:11:00.144Z,1.50
2019-05-28T19:13:27.087Z,1.83
2019-05-28T19:15:53.962Z,1.90
2019-05-28T19:18:21.038Z,1.50
2019-05-28T19:20:47.839Z,1.30
2019-05-28T19:23:14.667Z,1.53
2019-05-28T19:25:41.496Z,1.00
2019-05-28T19:28:08.382Z,1.23
2019-05-28T19:30:35.496Z,1.37
2019-05-28T19:33:03.440Z,1.30
2019-05-28T19:35:30.488Z,1.53
2019-05-28T19:37:58.185Z,1.37
2019-05-28T19:40:34.219Z,1.30
2019-05-28T19:43:01.154Z,0.93
2019-05-28T19:45:28.121Z,1.30
2019-05-28T19:47:54.930Z,1.17
2019-05-28T19:50:21.778Z,1.53
2019-05-28T19:52:48.735Z,1.50
2019-05-28T19:55:15.766Z,1.23
2019-05-28T19:57:42.625Z,1.10
2019-05-28T20:00:09.966Z,1.10
2019-05-28T20:02:36.961Z,0.90
2019-05-28T20:05:04.181Z,0.87
2019-05-28T20:07:31.118Z,1.23
2019-05-28T20:09:58.135Z,0.90
2019-05-28T20:12:25.179Z,1.13
2019-05-28T20:14:52.106Z,1.67
2019-05-28T20:17:19.122Z,1.03
2019-05-28T20:19:46.104Z,0.93
2019-05-28T20:22:12.910Z,1.40
2019-05-28T20:24:39.762Z,1.00
2019-05-28T20:27:06.691Z,0.83
2019-05-28T20:29:33.502Z,0.90
2019-05-28T20:32:01.144Z,0.83
2019-05-28T20:34:28.047Z,1.00
2019-05-28T20:36:55.097Z,0.63
2019-05-28T20:39:22.152Z,0.97
2019-05-28T20:41:49.050Z,0.80
2019-05-28T20:44:16.014Z,0.70
2019-05-28T20:46:42.947Z,0.80
2019-05-28T20:49:10.985Z,1.00
2019-05-28T20:51:38.025Z,0.83
2019-05-28T20:54:04.908Z,0.70
2019-05-28T20:56:31.767Z,1.33
2019-05-28T20:59:01.216Z,0.90
2019-05-28T21:01:27.496Z,0.73
2019-05-28T21:03:54.312Z,0.63
2019-05-28T21:06:21.231Z,0.90
2019-05-28T21:08:48.167Z,0.60
2019-05-28T21:11:14.990Z,0.80
2019-05-28T21:13:41.809Z,0.93
2019-05-28T21:16:08.658Z,1.03
2019-05-28T21:18:35.574Z,0.90
2019-05-28T21:21:02.488Z,0.90
2019-05-28T21:23:29.441Z,0.73
2019-05-28T21:25:56.316Z,0.80
2019-05-28T21:28:25.885Z,0.93
2019-05-28T21:30:52.476Z,1.07
2019-05-28T21:33:19.410Z,0.73
2019-05-28T21:35:46.271Z,1.10
2019-05-28T21:38:13.086Z,0.90
2019-05-28T21:40:39.890Z,0.90
2019-05-28T21:43:09.745Z,1.00
2019-05-28T21:45:35.659Z,0.80
2019-05-28T21:48:03.035Z,1.00
2019-05-28T21:50:30.169Z,1.07
2019-05-28T21:52:57.179Z,0.83
2019-05-28T21:55:24.203Z,0.87
2019-05-28T21:57:51.083Z,0.90
2019-05-28T22:00:26.122Z,0.83
2019-05-28T22:02:53.046Z,0.93
2019-05-28T22:05:19.936Z,0.77
2019-05-28T22:07:46.887Z,0.80
2019-05-28T22:10:14.207Z,0.80
2019-05-28T22:12:41.044Z,1.00
2019-05-28T22:15:08.762Z,1.10
2019-05-28T22:17:35.766Z,0.70
2019-05-28T22:20:04.461Z,0.77
2019-05-28T22:22:31.524Z,0.83
2019-05-28T22:24:58.564Z,0.83
2019-05-28T22:27:25.758Z,0.87
2019-05-28T22:29:52.593Z,1.07
2019-05-28T22:32:19.507Z,0.70
2019-05-28T22:34:46.415Z,0.77
2019-05-28T22:37:13.258Z,0.80
2019-05-28T22:39:40.157Z,0.80
2019-05-28T22:42:07.957Z,0.60
2019-05-28T22:44:34.925Z,0.63
2019-05-28T22:47:01.817Z,0.80
2019-05-28T22:49:28.622Z,0.67
2019-05-28T22:51:55.464Z,0.67
2019-05-28T22:54:22.499Z,0.80
2019-05-28T22:56:49.287Z,0.47
2019-05-28T22:59:16.183Z,0.70
2019-05-28T23:01:43.010Z,0.70
2019-05-28T23:04:09.849Z,0.60
2019-05-28T23:06:36.652Z,0.63
2019-05-28T23:09:05.631Z,1.00
2019-05-28T23:11:32.819Z,0.70
2019-05-28T23:13:59.895Z,0.90
2019-05-28T23:16:26.806Z,0.90
2019-05-28T23:18:53.654Z,0.83
2019-05-28T23:21:20.643Z,0.87
2019-05-28T23:23:47.452Z,0.90
2019-05-28T23:26:14.355Z,0.90
2019-05-28T23:28:41.352Z,0.73
2019-05-28T23:31:08.296Z,0.90
2019-05-28T23:33:35.122Z,0.90
2019-05-28T23:36:02.477Z,0.90
2019-05-28T23:38:29.670Z,0.90
2019-05-28T23:40:56.479Z,1.20
2019-05-28T23:43:23.270Z,1.07
2019-05-28T23:45:50.293Z,1.30
2019-05-28T23:48:18.470Z,0.80
2019-05-28T23:50:45.762Z,0.80
2019-05-28T23:53:13.738Z,0.87
2019-05-28T23:55:40.789Z,1.20
2019-05-28T23:58:07.714Z,1.20
